Time;durP1;ratioP1;P1;durP2;ratioP2;P2;SDS_P1;SDS_P2;PMS_P1;PMS_P2;Temp;Humidity;BMP_temperature;BMP_pressure;BME280_temperature;BME280_humidity;BME280_pressure;Samples;Min_cycle;Max_cycle;Signal;HPM_P1;HPM_P2
2023/06/15 00:00:13;;;;;;;3.42;1.80;;;;;;;24.55;31.71;101698.00;6197983;23;20029;-63
2023/06/15 00:02:42;;;;;;;4.82;1.85;;;;;;;24.53;31.67;101694.72;6196734;23;20028;-64
2023/06/15 00:05:11;;;;;;;3.85;2.28;;;;;;;24.52;31.82;101704.06;6198490;23;20056;-63
2023/06/15 00:07:38;;;;;;;2.53;1.80;;;;;;;24.50;31.78;101701.63;6197617;23;20021;-64
2023/06/15 00:10:07;;;;;;;4.18;2.40;;;;;;;24.49;31.91;101710.16;6197233;23;20071;-63
2023/06/15 00:12:35;;;;;;;3.50;2.22;;;;;;;24.46;31.87;101702.50;6196553;23;20025;-64
2023/06/15 00:15:04;;;;;;;3.00;2.08;;;;;;;24.45;31.64;101703.63;6198922;23;20101;-63
2023/06/15 00:17:31;;;;;;;3.25;1.70;;;;;;;24.43;31.92;101703.91;6196831;23;20036;-63
2023/06/15 00:20:04;;;;;;;3.33;1.92;;;;;;;24.41;31.93;101705.31;6198409;23;20080;-63
2023/06/15 00:22:34;;;;;;;3.15;1.90;;;;;;;24.39;32.14;101705.59;6197839;23;20025;-64
2023/06/15 00:25:02;;;;;;;2.28;1.85;;;;;;;24.37;31.85;101701.50;6199053;23;20075;-63
2023/06/15 00:27:30;;;;;;;4.38;1.98;;;;;;;24.34;31.82;101709.25;6196987;23;20032;-63
2023/06/15 00:29:57;;;;;;;2.20;1.58;;;;;;;24.33;32.30;101712.28;6198547;23;20017;-63
2023/06/15 00:32:25;;;;;;;2.90;1.83;;;;;;;24.30;32.04;101708.19;6196391;23;20040;-64
2023/06/15 00:34:53;;;;;;;3.97;1.70;;;;;;;24.27;32.25;101708.78;6197181;23;20597;-63
2023/06/15 00:37:22;;;;;;;2.42;1.73;;;;;;;24.18;32.23;101710.53;6197186;23;20075;-63
2023/06/15 00:39:50;;;;;;;4.57;1.92;;;;;;;24.23;32.71;101717.88;6197921;23;20036;-64
2023/06/15 00:42:18;;;;;;;2.72;1.88;;;;;;;24.19;32.44;101717.66;6195830;23;20503;-63
2023/06/15 00:44:46;;;;;;;2.40;1.90;;;;;;;24.17;32.74;101724.56;6198166;23;20091;-62
2023/06/15 00:47:15;;;;;;;6.45;2.60;;;;;;;24.14;32.67;101725.97;6195536;23;20040;-62
2023/06/15 00:49:44;;;;;;;5.18;1.80;;;;;;;24.11;32.76;101721.03;6198026;23;20065;-63
2023/06/15 00:52:13;;;;;;;3.35;2.08;;;;;;;24.09;32.44;101720.50;6196694;23;20444;-63
2023/06/15 00:54:43;;;;;;;3.45;1.80;;;;;;;23.99;33.01;101712.38;6197270;23;20528;-63
2023/06/15 00:57:12;;;;;;;2.95;1.92;;;;;;;24.06;33.01;101723.03;6196564;23;20036;-63
2023/06/15 00:59:41;;;;;;;4.20;1.85;;;;;;;24.03;32.61;101721.69;6197188;23;20213;-64
2023/06/15 01:02:12;;;;;;;3.45;1.70;;;;;;;24.01;32.67;101719.22;6195301;23;20033;-63
2023/06/15 01:04:40;;;;;;;4.57;1.90;;;;;;;23.99;32.69;101720.63;6198201;23;20059;-63
2023/06/15 01:07:10;;;;;;;2.80;1.70;;;;;;;23.96;33.11;101719.28;6196081;23;20064;-63
2023/06/15 01:09:42;;;;;;;5.25;1.88;;;;;;;23.94;33.01;101724.25;6197163;23;20017;-64
2023/06/15 01:12:13;;;;;;;2.95;2.10;;;;;;;23.92;32.86;101720.16;6196478;23;20025;-64
2023/06/15 01:14:42;;;;;;;10.23;2.38;;;;;;;23.91;33.22;101718.50;6197755;23;20036;-64
2023/06/15 01:17:13;;;;;;;4.32;1.60;;;;;;;23.88;33.28;101724.59;6195664;23;20021;-64
2023/06/15 01:19:53;;;;;;;2.92;1.85;;;;;;;23.85;33.12;101720.50;6198265;23;20096;-64
2023/06/15 01:22:34;;;;;;;3.75;1.92;;;;;;;23.84;33.53;101721.59;6197044;23;20068;-64
2023/06/15 01:25:16;;;;;;;3.72;1.92;;;;;;;23.83;33.56;101724.63;6197802;23;20084;-64
2023/06/15 01:27:49;;;;;;;4.15;1.77;;;;;;;23.81;33.51;101729.59;6196461;23;20056;-63
2023/06/15 01:30:17;;;;;;;2.53;1.83;;;;;;;23.80;33.30;101730.69;6197580;23;20020;-61
2023/06/15 01:32:45;;;;;;;3.13;2.30;;;;;;;23.79;33.19;101729.88;6196131;23;20446;-65
2023/06/15 01:35:13;;;;;;;4.35;1.90;;;;;;;23.77;33.37;101734.84;6197499;23;20088;-64
2023/06/15 01:37:41;;;;;;;4.13;1.90;;;;;;;23.76;33.69;101732.38;6197065;23;20033;-64
2023/06/15 01:40:10;;;;;;;8.30;2.33;;;;;;;23.75;33.73;101734.31;6197462;23;20075;-63
2023/06/15 01:42:38;;;;;;;5.18;1.85;;;;;;;23.75;33.65;101741.72;6195980;23;20025;-64
2023/06/15 01:45:09;;;;;;;2.90;2.10;;;;;;;23.72;33.60;101729.41;6197727;23;20029;-63
2023/06/15 01:47:39;;;;;;;4.28;1.77;;;;;;;23.70;33.45;101731.63;6195651;23;20028;-63
2023/06/15 01:50:09;;;;;;;2.85;2.15;;;;;;;23.69;33.47;101733.53;6197167;23;20048;-65
2023/06/15 01:52:37;;;;;;;2.42;1.80;;;;;;;23.67;33.62;101729.44;6196458;23;20089;-64
2023/06/15 01:55:07;;;;;;;5.55;2.60;;;;;;;23.64;34.05;101732.75;6196603;23;20025;-63
2023/06/15 01:57:39;;;;;;;2.88;1.92;;;;;;;23.62;34.10;101727.56;6196454;23;20368;-63
2023/06/15 02:00:10;;;;;;;2.40;1.98;;;;;;;23.60;33.93;101726.22;6196962;23;20027;-63
2023/06/15 02:02:39;;;;;;;5.22;1.92;;;;;;;23.56;34.10;101717.75;6194763;23;20021;-64
2023/06/15 02:05:08;;;;;;;8.40;2.08;;;;;;;23.57;34.18;101727.59;6196799;23;20025;-63
2023/06/15 02:07:36;;;;;;;3.03;2.08;;;;;;;23.56;33.93;101725.97;6196189;23;20432;-62
2023/06/15 02:10:04;;;;;;;2.78;1.90;;;;;;;23.54;34.24;101725.44;6196692;23;20020;-64
2023/06/15 02:12:32;;;;;;;3.83;2.00;;;;;;;23.44;34.33;101714.53;6195807;23;20029;-63
2023/06/15 02:15:02;;;;;;;3.47;1.95;;;;;;;23.52;34.31;101726.81;6197224;23;20513;-63
2023/06/15 02:17:39;;;;;;;10.40;2.35;;;;;;;23.50;33.97;101729.84;6194990;23;20024;-62
2023/06/15 02:20:09;;;;;;;3.47;1.90;;;;;;;23.48;34.54;101726.56;6197653;23;20028;-62
2023/06/15 02:22:37;;;;;;;4.22;2.05;;;;;;;23.46;34.41;101728.78;6197105;23;20128;-63
2023/06/15 02:25:07;;;;;;;5.05;2.00;;;;;;;23.45;34.28;101731.78;6197360;23;20107;-63
2023/06/15 02:27:35;;;;;;;4.47;2.20;;;;;;;23.42;34.74;101741.41;6195479;23;20341;-63
2023/06/15 02:30:03;;;;;;;3.28;2.28;;;;;;;23.38;34.50;101743.09;6196753;23;20017;-62
2023/06/15 02:32:35;;;;;;;3.28;2.10;;;;;;;23.34;34.71;101745.59;6195017;23;20153;-63
2023/06/15 02:35:05;;;;;;;4.45;2.40;;;;;;;23.33;34.58;101743.13;6197247;23;20108;-63
2023/06/15 02:37:33;;;;;;;4.78;2.47;;;;;;;23.30;34.54;101750.00;6196483;23;20032;-62
2023/06/15 02:40:03;;;;;;;3.92;2.20;;;;;;;23.28;34.66;101745.91;6196504;23;20040;-63
2023/06/15 02:42:31;;;;;;;6.43;2.88;;;;;;;23.26;34.78;101751.69;6196070;23;20031;-63
2023/06/15 02:44:59;;;;;;;2.17;1.90;;;;;;;23.24;35.05;101748.41;6197383;23;20044;-64
2023/06/15 02:47:28;;;;;;;3.88;2.25;;;;;;;23.22;34.79;101750.63;6194545;23;20029;-63
2023/06/15 02:49:59;;;;;;;3.70;2.17;;;;;;;23.21;34.96;101756.38;6195935;23;20080;-62
2023/06/15 02:52:27;;;;;;;4.53;2.03;;;;;;;23.19;35.09;101747.63;6196035;23;20025;-63
2023/06/15 02:54:55;;;;;;;3.45;2.38;;;;;;;23.16;35.26;101761.91;6196791;23;20096;-63
2023/06/15 02:57:23;;;;;;;5.22;1.95;;;;;;;23.13;34.99;101763.28;6195748;23;20047;-60
2023/06/15 02:59:51;;;;;;;5.82;2.22;;;;;;;23.11;35.42;101757.28;6196119;23;20099;-62
2023/06/15 03:02:20;;;;;;;3.95;2.40;;;;;;;23.11;35.50;101759.19;6194152;23;20051;-61
2023/06/15 03:04:50;;;;;;;6.38;2.40;;;;;;;23.09;35.23;101764.13;6196383;23;20053;-62
2023/06/15 03:07:20;;;;;;;8.00;2.42;;;;;;;23.07;35.54;101755.38;6196329;23;20032;-62
2023/06/15 03:09:49;;;;;;;6.70;2.50;;;;;;;23.02;35.26;101754.31;6196041;23;20048;-63
2023/06/15 03:12:17;;;;;;;5.22;2.33;;;;;;;23.01;35.55;101760.06;6195550;23;20075;-63
2023/06/15 03:14:49;;;;;;;5.07;2.22;;;;;;;23.00;35.49;101762.00;6197145;23;20068;-63
2023/06/15 03:17:18;;;;;;;4.32;2.25;;;;;;;22.99;35.69;101762.28;6195927;23;20076;-62
2023/06/15 03:19:47;;;;;;;3.67;2.50;;;;;;;22.96;35.53;101760.09;6197287;23;20049;-64
2023/06/15 03:22:15;;;;;;;3.53;2.08;;;;;;;22.97;35.56;101764.47;6197055;23;20021;-63
2023/06/15 03:24:45;;;;;;;5.10;2.40;;;;;;;22.96;35.39;101760.91;6198019;23;20045;-62
2023/06/15 03:27:13;;;;;;;4.65;2.13;;;;;;;22.94;35.73;101759.56;6197126;23;20029;-63
2023/06/15 03:29:41;;;;;;;4.80;2.45;;;;;;;22.92;35.64;101762.59;6197329;23;20091;-63
2023/06/15 03:32:09;;;;;;;5.18;2.08;;;;;;;22.92;35.56;101768.06;6196537;23;20021;-63
2023/06/15 03:34:38;;;;;;;4.30;2.28;;;;;;;22.91;35.53;101765.59;6198005;23;20025;-63
2023/06/15 03:37:06;;;;;;;4.93;2.40;;;;;;;22.91;35.70;101773.84;6198731;23;20025;-63
2023/06/15 03:39:34;;;;;;;3.72;2.35;;;;;;;22.89;35.91;101770.56;6198494;23;20099;-63
2023/06/15 03:42:03;;;;;;;4.30;2.38;;;;;;;22.86;35.93;101760.16;6197189;23;20025;-63
2023/06/15 03:44:31;;;;;;;4.93;2.22;;;;;;;22.86;35.62;101771.13;6199298;23;20028;-63
2023/06/15 03:46:58;;;;;;;5.57;2.78;;;;;;;22.85;35.84;101769.47;6196749;23;20025;-62
2023/06/15 03:49:26;;;;;;;3.33;2.40;;;;;;;22.83;36.11;101767.03;6198596;23;20029;-62
2023/06/15 03:51:54;;;;;;;3.78;2.38;;;;;;;22.82;35.71;101773.59;6197391;23;20025;-63
2023/06/15 03:54:22;;;;;;;3.85;2.55;;;;;;;22.80;35.83;101766.75;6199093;23;20025;-63
2023/06/15 03:56:50;;;;;;;4.70;2.72;;;;;;;22.79;35.86;101762.34;6198083;23;20090;-65
2023/06/15 03:59:19;;;;;;;3.75;2.33;;;;;;;22.78;36.04;101771.66;6198374;23;20024;-63
2023/06/15 04:01:47;;;;;;;5.70;2.83;;;;;;;22.77;35.79;101775.50;6196961;23;20056;-63
2023/06/15 04:04:15;;;;;;;7.28;2.78;;;;;;;22.74;35.77;101779.63;6198010;23;20025;-63
2023/06/15 04:06:46;;;;;;;5.63;2.60;;;;;;;22.73;36.28;101778.00;6197790;23;20025;-64
2023/06/15 04:09:14;;;;;;;7.43;2.42;;;;;;;22.71;36.02;101774.72;6198260;23;20025;-63
2023/06/15 04:11:42;;;;;;;3.55;2.33;;;;;;;22.69;36.07;101783.22;6197140;23;20028;-63
2023/06/15 04:14:10;;;;;;;4.95;2.55;;;;;;;22.66;36.48;101783.78;6198362;23;20025;-62
2023/06/15 04:16:39;;;;;;;5.65;2.67;;;;;;;22.66;36.18;101782.97;6196851;23;20359;-63
2023/06/15 04:19:07;;;;;;;7.15;2.55;;;;;;;22.64;36.24;101787.91;6194155;23;20028;-62
2023/06/15 04:21:36;;;;;;;4.10;2.10;;;;;;;22.61;36.45;101785.72;6193579;23;20589;-63
2023/06/15 04:24:05;;;;;;;6.65;2.45;;;;;;;22.60;36.55;101790.38;6193628;23;20021;-62
2023/06/15 04:26:33;;;;;;;7.70;2.58;;;;;;;22.58;36.69;101789.00;6193113;23;20033;-63
2023/06/15 04:29:01;;;;;;;4.43;2.45;;;;;;;22.55;36.67;101790.41;6192988;23;20070;-62
2023/06/15 04:31:33;;;;;;;5.68;2.95;;;;;;;22.53;36.64;101789.06;6191452;23;20075;-62
2023/06/15 04:34:04;;;;;;;3.08;2.30;;;;;;;22.52;36.85;101799.19;6193690;23;20021;-62
2023/06/15 04:36:38;;;;;;;3.58;2.40;;;;;;;22.50;36.59;101795.09;6191936;23;20028;-62
2023/06/15 04:39:06;;;;;;;3.70;2.67;;;;;;;22.48;36.71;101800.84;6193665;23;20390;-63
2023/06/15 04:41:35;;;;;;;6.93;2.78;;;;;;;22.47;36.73;101796.47;6191161;23;20032;-63
2023/06/15 04:44:02;;;;;;;7.72;2.58;;;;;;;22.47;36.88;101801.13;6191643;23;20068;-61
2023/06/15 04:46:30;;;;;;;4.00;2.53;;;;;;;22.44;36.95;101793.47;6191441;23;20033;-63
2023/06/15 04:49:00;;;;;;;4.85;2.78;;;;;;;22.43;37.09;101795.41;6192888;23;20404;-62
2023/06/15 04:51:30;;;;;;;4.85;2.45;;;;;;;22.43;36.97;101798.13;6193173;23;20027;-63
2023/06/15 04:54:00;;;;;;;5.70;2.90;;;;;;;22.42;37.06;101804.72;6193411;23;20052;-62
2023/06/15 04:56:28;;;;;;;5.18;3.00;;;;;;;22.42;36.75;101803.88;6192659;23;20095;-62
2023/06/15 04:58:56;;;;;;;9.73;2.60;;;;;;;22.43;36.84;101805.53;6194148;23;20025;-62
2023/06/15 05:01:24;;;;;;;3.85;2.58;;;;;;;22.43;36.73;101805.53;6191089;23;20398;-64
2023/06/15 05:03:54;;;;;;;8.65;2.90;;;;;;;22.43;36.34;101809.09;6193294;23;20056;-62
2023/06/15 05:06:22;;;;;;;5.00;2.53;;;;;;;22.44;36.49;101812.66;6192541;23;20033;-63
2023/06/15 05:08:52;;;;;;;5.63;3.28;;;;;;;22.45;36.40;101804.16;6193803;23;20029;-64
2023/06/15 05:11:22;;;;;;;5.63;3.03;;;;;;;22.47;36.48;101807.44;6191849;23;20048;-63
2023/06/15 05:13:50;;;;;;;4.80;2.30;;;;;;;22.51;36.34;101808.53;6193119;23;20032;-62
2023/06/15 05:16:18;;;;;;;3.70;2.78;;;;;;;22.54;36.35;101807.94;6191238;23;20454;-62
2023/06/15 05:18:46;;;;;;;5.25;3.10;;;;;;;22.56;36.46;101813.97;6192886;23;20028;-63
2023/06/15 05:21:14;;;;;;;6.55;2.63;;;;;;;22.59;36.31;101815.31;6192992;23;20195;-62
2023/06/15 05:23:42;;;;;;;5.78;3.17;;;;;;;22.62;36.54;101812.84;6193528;23;20083;-62
2023/06/15 05:26:12;;;;;;;5.40;3.05;;;;;;;22.63;36.39;101814.47;6192847;23;20063;-63
2023/06/15 05:28:56;;;;;;;6.03;3.13;;;;;;;22.66;36.49;101818.59;6193637;23;20103;-62
2023/06/15 05:31:24;;;;;;;4.30;2.78;;;;;;;22.68;36.51;101819.13;6191162;23;20025;-62
2023/06/15 05:33:52;;;;;;;4.72;2.45;;;;;;;22.69;36.53;101818.84;6193547;23;20056;-62
2023/06/15 05:36:19;;;;;;;5.90;2.53;;;;;;;22.71;36.44;101822.13;6192719;23;20067;-62
2023/06/15 05:39:06;;;;;;;6.60;2.75;;;;;;;22.73;36.79;101816.38;6191776;23;20099;-62
2023/06/15 05:41:35;;;;;;;4.85;2.78;;;;;;;22.74;36.72;101821.56;6191310;23;20036;-62
2023/06/15 05:44:03;;;;;;;6.85;2.95;;;;;;;22.76;36.60;101821.28;6192546;23;20033;-62
2023/06/15 05:46:31;;;;;;;6.15;2.53;;;;;;;22.78;36.75;101821.00;6191164;23;20095;-61
2023/06/15 05:48:59;;;;;;;5.47;3.10;;;;;;;22.80;36.94;101816.09;6192453;23;20021;-63
2023/06/15 05:51:27;;;;;;;6.35;2.70;;;;;;;22.80;36.71;101825.16;6191609;23;20025;-63
2023/06/15 05:53:54;;;;;;;4.32;2.88;;;;;;;22.80;36.59;101822.41;6193030;23;20028;-62
2023/06/15 05:56:22;;;;;;;4.72;2.60;;;;;;;22.80;36.59;101818.84;6191628;23;20028;-62
2023/06/15 05:58:51;;;;;;;3.72;2.67;;;;;;;22.78;36.65;101821.00;6192700;23;20029;-66
2023/06/15 06:01:19;;;;;;;10.18;3.00;;;;;;;22.76;36.65;101820.47;6191918;23;20025;-62
2023/06/15 06:03:47;;;;;;;5.35;2.83;;;;;;;22.71;36.49;101813.91;6192598;23;20036;-62
2023/06/15 06:06:15;;;;;;;4.25;3.05;;;;;;;22.69;36.70;101820.75;6191815;23;20037;-63
2023/06/15 06:08:43;;;;;;;7.95;2.60;;;;;;;22.66;36.72;101821.31;6192925;23;20043;-63
2023/06/15 06:11:11;;;;;;;6.60;2.90;;;;;;;22.63;36.95;101822.69;6191288;23;20088;-64
2023/06/15 06:13:38;;;;;;;5.35;3.00;;;;;;;22.62;36.84;101822.97;6193065;23;20025;-62
2023/06/15 06:16:07;;;;;;;6.18;3.20;;;;;;;22.59;37.26;101827.09;6191951;23;20025;-62
2023/06/15 06:18:35;;;;;;;7.18;3.28;;;;;;;22.57;37.41;101823.81;6192981;23;20033;-63
2023/06/15 06:21:03;;;;;;;7.72;3.33;;;;;;;22.56;37.24;101821.34;6192646;23;20085;-63
2023/06/15 06:23:32;;;;;;;7.40;2.78;;;;;;;22.55;37.19;101823.28;6193535;23;20032;-63
2023/06/15 06:26:00;;;;;;;8.35;3.42;;;;;;;22.54;37.34;101823.56;6191733;23;20383;-61
2023/06/15 06:28:28;;;;;;;12.57;3.58;;;;;;;22.53;37.28;101821.94;6192666;23;20025;-63
2023/06/15 06:30:56;;;;;;;5.40;3.45;;;;;;;22.53;37.38;101824.69;6191932;23;20029;-63
2023/06/15 06:33:25;;;;;;;4.65;3.00;;;;;;;22.53;37.49;101816.47;6191742;23;20036;-62
2023/06/15 06:35:53;;;;;;;6.38;3.60;;;;;;;22.51;37.27;101816.75;6192187;23;20048;-63
2023/06/15 06:38:21;;;;;;;5.90;2.90;;;;;;;22.51;37.32;101818.66;6192276;23;20029;-63
2023/06/15 06:40:48;;;;;;;5.88;3.20;;;;;;;22.51;37.27;101821.41;6191259;23;20029;-63
2023/06/15 06:43:16;;;;;;;8.02;3.13;;;;;;;22.50;37.29;101817.84;6190411;23;20029;-63
2023/06/15 06:45:44;;;;;;;5.18;3.33;;;;;;;22.52;37.43;101820.31;6190573;23;20056;-63
2023/06/15 06:48:12;;;;;;;10.95;3.63;;;;;;;22.53;37.75;101830.16;6191561;23;20052;-66
2023/06/15 06:50:41;;;;;;;8.82;3.80;;;;;;;22.53;37.79;101821.94;6191241;23;20029;-65
2023/06/15 06:53:09;;;;;;;7.18;2.95;;;;;;;22.53;37.75;101822.75;6194143;23;20103;-67
2023/06/15 06:55:37;;;;;;;11.05;3.17;;;;;;;22.54;37.70;101826.28;6193909;23;20515;-65
2023/06/15 06:58:05;;;;;;;6.95;3.53;;;;;;;22.55;37.46;101833.41;6194117;23;20036;-64
2023/06/15 07:00:33;;;;;;;7.40;3.20;;;;;;;22.55;37.76;101828.75;6194350;23;20025;-64
2023/06/15 07:03:01;;;;;;;7.60;3.40;;;;;;;22.56;37.76;101827.66;6194024;23;20088;-64
2023/06/15 07:05:29;;;;;;;5.25;3.10;;;;;;;22.59;37.69;101823.53;6194843;23;20133;-64
2023/06/15 07:07:58;;;;;;;7.15;3.30;;;;;;;22.59;37.71;101829.00;6193614;23;20025;-65
2023/06/15 07:10:26;;;;;;;8.60;3.25;;;;;;;22.56;37.77;101821.34;6195266;23;20060;-65
2023/06/15 07:12:55;;;;;;;6.22;3.35;;;;;;;22.61;38.03;101830.38;6194335;23;20024;-66
2023/06/15 07:15:26;;;;;;;6.10;3.28;;;;;;;22.62;37.70;101831.19;6193869;23;20397;-65
2023/06/15 07:17:55;;;;;;;6.30;2.85;;;;;;;22.64;38.18;101829.00;6193304;23;20029;-65
2023/06/15 07:20:22;;;;;;;5.55;3.17;;;;;;;22.65;38.01;101834.22;6193993;23;20029;-65
2023/06/15 07:22:50;;;;;;;5.65;2.80;;;;;;;22.66;37.67;101835.03;6194813;23;20040;-64
2023/06/15 07:25:19;;;;;;;6.88;2.92;;;;;;;22.66;37.79;101827.63;6194459;23;20079;-64
2023/06/15 07:27:47;;;;;;;6.25;2.90;;;;;;;22.68;37.53;101830.09;6193134;23;20024;-64
2023/06/15 07:30:15;;;;;;;5.53;3.55;;;;;;;22.69;37.72;101829.00;6194728;23;20029;-64
2023/06/15 07:32:43;;;;;;;4.43;3.05;;;;;;;22.69;37.75;101829.81;6193136;23;20048;-65
2023/06/15 07:35:12;;;;;;;8.27;3.15;;;;;;;22.68;37.84;101833.66;6194586;23;20406;-69
2023/06/15 07:37:40;;;;;;;6.40;3.15;;;;;;;22.69;37.70;101839.94;6194197;23;20029;-67
2023/06/15 07:40:09;;;;;;;5.28;3.20;;;;;;;22.71;37.88;101833.09;6193722;23;20447;-65
2023/06/15 07:42:38;;;;;;;7.15;3.53;;;;;;;22.72;37.62;101842.13;6193007;23;20027;-65
2023/06/15 07:45:07;;;;;;;12.73;3.58;;;;;;;22.72;37.74;101840.22;6194475;23;20086;-65
2023/06/15 07:47:35;;;;;;;6.88;3.90;;;;;;;22.74;37.75;101848.16;6192483;23;20029;-66
2023/06/15 07:50:03;;;;;;;6.72;2.72;;;;;;;22.76;37.82;101847.88;6194600;23;20045;-65
2023/06/15 07:52:31;;;;;;;4.80;2.85;;;;;;;22.77;37.68;101844.03;6193964;23;20021;-66
2023/06/15 07:54:59;;;;;;;7.13;3.40;;;;;;;22.78;37.83;101840.19;6193919;23;20039;-64
2023/06/15 07:57:27;;;;;;;10.85;3.58;;;;;;;22.80;38.02;101843.50;6193699;23;20083;-64
2023/06/15 07:59:56;;;;;;;20.08;5.53;;;;;;;22.80;37.97;101838.84;6193612;23;20084;-68
2023/06/15 08:02:24;;;;;;;15.60;4.28;;;;;;;22.85;38.11;101840.75;6191899;23;20017;-67
2023/06/15 08:04:52;;;;;;;7.22;3.42;;;;;;;22.86;38.25;101845.13;6194664;23;20025;-67
2023/06/15 08:07:19;;;;;;;11.38;4.18;;;;;;;22.87;38.20;101838.53;6193802;23;20025;-67
2023/06/15 08:09:47;;;;;;;8.70;3.63;;;;;;;22.83;38.15;101834.72;6194549;23;20305;-66
2023/06/15 08:12:17;;;;;;;7.20;3.95;;;;;;;22.88;37.80;101838.28;6193052;23;20021;-64
2023/06/15 08:14:44;;;;;;;7.68;3.60;;;;;;;22.90;37.78;101838.00;6194328;23;20025;-65
2023/06/15 08:17:13;;;;;;;7.55;3.45;;;;;;;22.94;38.38;101837.16;6192298;23;20059;-64
2023/06/15 08:19:41;;;;;;;7.85;3.72;;;;;;;22.93;38.09;101841.00;6193978;23;20515;-65
2023/06/15 08:22:09;;;;;;;6.85;3.70;;;;;;;22.96;37.93;101842.34;6193724;23;20021;-65
2023/06/15 08:24:37;;;;;;;9.15;4.07;;;;;;;23.02;39.06;101849.44;6194278;23;20123;-65
2023/06/15 08:27:05;;;;;;;4.88;2.70;;;;;;;23.02;38.30;101841.22;6193353;23;20021;-64
2023/06/15 08:29:33;;;;;;;9.60;3.63;;;;;;;23.11;38.35;101838.72;6194815;23;20036;-65
2023/06/15 08:32:01;;;;;;;8.98;4.10;;;;;;;23.09;37.96;101835.44;6191988;23;20029;-65
2023/06/15 08:34:30;;;;;;;7.30;3.50;;;;;;;23.08;37.88;101836.53;6194097;23;20544;-65
2023/06/15 08:36:58;;;;;;;7.85;3.30;;;;;;;23.09;38.16;101833.50;6193825;23;20049;-65
2023/06/15 08:39:25;;;;;;;7.22;2.92;;;;;;;23.19;39.62;101835.38;6194310;23;20028;-65
2023/06/15 08:41:55;;;;;;;9.00;2.97;;;;;;;23.21;38.94;101835.94;6192417;23;20082;-66
2023/06/15 08:44:23;;;;;;;6.80;2.97;;;;;;;23.22;39.03;101838.38;6193542;23;20021;-65
2023/06/15 08:46:52;;;;;;;6.60;3.15;;;;;;;23.25;39.25;101840.56;6192164;23;20033;-63
2023/06/15 08:49:20;;;;;;;8.82;3.30;;;;;;;23.31;38.71;101841.34;6194667;23;20029;-65
2023/06/15 08:51:50;;;;;;;5.75;2.83;;;;;;;23.35;38.88;101835.03;6193520;23;20060;-65
2023/06/15 08:54:20;;;;;;;3.80;2.33;;;;;;;23.37;38.63;101837.47;6192550;23;20029;-65
2023/06/15 08:56:48;;;;;;;5.53;2.67;;;;;;;23.43;39.02;101827.28;6193641;23;20029;-64
2023/06/15 08:59:16;;;;;;;6.47;2.70;;;;;;;23.43;38.38;101825.38;6191982;23;20037;-65
2023/06/15 09:01:44;;;;;;;4.38;2.75;;;;;;;23.51;38.88;101829.44;6188283;23;20273;-64
2023/06/15 09:04:13;;;;;;;5.22;2.65;;;;;;;23.63;38.48;101829.94;6192592;23;20031;-65
2023/06/15 09:06:41;;;;;;;6.15;2.47;;;;;;;23.71;38.43;101817.53;6193448;23;20134;-65
2023/06/15 09:09:10;;;;;;;5.35;2.40;;;;;;;23.69;38.16;101828.78;6194136;23;20029;-65
2023/06/15 09:11:43;;;;;;;4.50;2.83;;;;;;;23.74;38.32;101820.50;6192304;23;20025;-64
2023/06/15 09:14:12;;;;;;;4.65;2.50;;;;;;;23.81;37.93;101818.25;6192423;23;20021;-63
2023/06/15 09:16:40;;;;;;;4.50;2.58;;;;;;;23.82;37.76;101814.41;6190973;23;20243;-65
2023/06/15 09:19:13;;;;;;;4.45;2.40;;;;;;;23.81;38.06;101821.00;6193136;23;20081;-65
2023/06/15 09:21:42;;;;;;;4.97;2.38;;;;;;;23.79;37.73;101823.22;6193559;23;20029;-65
2023/06/15 09:24:13;;;;;;;5.25;2.65;;;;;;;23.77;37.49;101828.19;6193509;23;20021;-65
2023/06/15 09:26:41;;;;;;;7.45;3.05;;;;;;;23.77;37.80;101827.34;6192239;23;20036;-66
2023/06/15 09:29:11;;;;;;;6.68;2.70;;;;;;;23.76;37.50;101826.53;6193676;23;20060;-67
2023/06/15 09:31:40;;;;;;;8.60;3.03;;;;;;;23.76;37.41;101829.28;6191329;23;20064;-66
2023/06/15 09:34:10;;;;;;;5.40;2.55;;;;;;;23.76;37.13;101822.97;6193714;23;20052;-65
2023/06/15 09:36:44;;;;;;;5.03;2.60;;;;;;;23.77;37.72;101830.09;6192840;23;20043;-64
2023/06/15 09:39:14;;;;;;;6.00;2.72;;;;;;;23.84;37.67;101820.44;6192888;23;20091;-64
2023/06/15 09:41:53;;;;;;;7.40;2.72;;;;;;;23.85;37.13;101816.59;6189534;23;20033;-63
2023/06/15 09:44:22;;;;;;;4.35;2.65;;;;;;;23.86;37.38;101811.91;6188629;23;20092;-63
2023/06/15 09:46:51;;;;;;;6.30;2.20;;;;;;;23.86;37.12;101807.25;6190525;23;20112;-64
2023/06/15 09:49:25;;;;;;;5.15;2.50;;;;;;;23.88;37.45;101818.75;6191977;23;20083;-65
2023/06/15 09:51:54;;;;;;;5.47;2.60;;;;;;;23.91;36.95;101817.34;6190332;23;20056;-66
2023/06/15 09:54:25;;;;;;;7.13;2.45;;;;;;;23.93;37.18;101812.41;6190901;23;20036;-65
2023/06/15 09:56:57;;;;;;;3.70;2.67;;;;;;;23.91;37.61;101807.19;6186718;23;20084;-66
2023/06/15 09:59:25;;;;;;;6.32;2.72;;;;;;;24.02;37.54;101821.66;6191563;23;20099;-65
2023/06/15 10:01:58;;;;;;;4.50;2.85;;;;;;;24.07;37.69;101818.03;6194105;23;20024;-66
2023/06/15 10:04:28;;;;;;;4.15;2.42;;;;;;;24.11;37.44;101816.34;6197020;23;20020;-66
2023/06/15 10:07:02;;;;;;;4.78;2.58;;;;;;;24.23;37.89;101816.78;6197289;23;20360;-67
2023/06/15 10:09:36;;;;;;;5.85;2.55;;;;;;;24.26;37.60;101811.56;6197645;23;20031;-67
2023/06/15 10:12:09;;;;;;;4.93;2.60;;;;;;;24.30;38.10;101814.53;6196590;23;20129;-67
2023/06/15 10:14:43;;;;;;;4.00;2.60;;;;;;;24.32;37.74;101812.28;6196690;23;20021;-65
2023/06/15 10:17:14;;;;;;;5.00;2.58;;;;;;;24.34;37.96;101816.41;6195488;23;20024;-65
2023/06/15 10:19:44;;;;;;;5.60;2.65;;;;;;;24.41;37.53;101817.97;6196782;23;20104;-65
2023/06/15 10:22:16;;;;;;;3.22;2.42;;;;;;;24.40;36.59;101821.84;6196717;23;20031;-66
2023/06/15 10:24:46;;;;;;;8.75;2.60;;;;;;;24.38;36.42;101813.88;6196999;23;20083;-65
2023/06/15 10:27:15;;;;;;;4.95;2.50;;;;;;;24.37;36.56;101815.00;6194047;23;20039;-67
2023/06/15 10:29:56;;;;;;;7.18;3.30;;;;;;;24.37;36.41;101816.91;6197350;23;20060;-64
2023/06/15 10:32:32;;;;;;;4.10;2.30;;;;;;;24.39;37.02;101811.97;6195850;23;20033;-66
2023/06/15 10:35:08;;;;;;;7.18;2.30;;;;;;;24.42;37.04;101811.38;6196527;23;20353;-65
2023/06/15 10:37:42;;;;;;;4.72;2.65;;;;;;;24.42;36.21;101814.94;6196814;23;20025;-67
2023/06/15 10:40:17;;;;;;;4.20;2.50;;;;;;;24.46;36.67;101813.25;6190253;23;20025;-65
2023/06/15 10:42:48;;;;;;;8.95;2.45;;;;;;;24.48;36.31;101804.72;6191888;23;20025;-66
2023/06/15 10:45:27;;;;;;;7.57;2.60;;;;;;;24.52;37.28;101806.59;6193194;23;20321;-65
2023/06/15 10:47:57;;;;;;;6.25;2.83;;;;;;;24.55;36.75;101813.44;6191997;23;20032;-66
2023/06/15 10:50:26;;;;;;;4.35;2.70;;;;;;;24.55;36.16;101803.25;6192187;23;20097;-65
2023/06/15 10:52:54;;;;;;;5.47;2.45;;;;;;;24.56;36.34;101810.38;6192716;23;20060;-65
2023/06/15 10:55:24;;;;;;;5.85;2.97;;;;;;;24.59;36.75;101809.81;6192324;23;20430;-66
2023/06/15 10:58:15;;;;;;;4.72;2.45;;;;;;;24.59;35.20;101809.81;6192174;23;20032;-65
2023/06/15 11:00:43;;;;;;;3.65;2.22;;;;;;;24.59;35.68;101807.06;6192090;23;20363;-65
2023/06/15 11:03:25;;;;;;;3.90;2.28;;;;;;;24.60;36.09;101796.88;6191056;23;20079;-65
2023/06/15 11:06:07;;;;;;;4.72;2.40;;;;;;;24.62;35.62;101797.41;6192749;23;20052;-65
2023/06/15 11:08:46;;;;;;;7.28;3.00;;;;;;;24.63;35.97;101804.53;6192937;23;20076;-66
2023/06/15 11:11:16;;;;;;;3.95;2.63;;;;;;;24.65;36.29;101803.13;6190896;23;20036;-66
2023/06/15 11:14:02;;;;;;;4.45;2.53;;;;;;;24.71;36.45;101811.31;6192842;23;20021;-67
2023/06/15 11:16:32;;;;;;;8.95;2.95;;;;;;;24.77;36.19;101805.47;6191137;23;20098;-66
2023/06/15 11:19:23;;;;;;;4.30;2.50;;;;;;;24.80;36.05;101806.81;6193312;23;20033;-66
2023/06/15 11:21:59;;;;;;;3.75;2.47;;;;;;;24.83;36.49;101804.28;6192419;23;20427;-67
2023/06/15 11:24:29;;;;;;;6.78;3.00;;;;;;;24.86;36.47;101792.69;6192669;23;20028;-67
2023/06/15 11:27:03;;;;;;;3.95;2.28;;;;;;;24.95;36.42;101799.19;6191447;23;20025;-66
2023/06/15 11:29:33;;;;;;;4.88;2.50;;;;;;;25.01;36.44;101788.97;6192765;23;20040;-66
2023/06/15 11:32:02;;;;;;;4.80;2.53;;;;;;;25.06;36.51;101790.81;6190409;23;20028;-66
2023/06/15 11:34:30;;;;;;;4.45;2.85;;;;;;;25.08;35.85;101797.66;6192711;23;20052;-67